Ben — 9VJM4 — position and weather

sailwx.info

Track history (hours):
 
Tides and Currents Weather Stations Pressure Air Temp Water Temp Dewpoint Dewpoint Depression Visibility Wind Speed Wind Dir Waves Ship Positions

Ben

Last reported at 2014-Aug-22 07:09 UTC. Time now 2014-Aug-28 03:21 UTC.
Position N 19°49' E 109°09'.

Length 127 m; draft 7.1 m.

Type: Ship. MMSI: 565611000.

Date/timePositionNaut miles runAvg speedWind from/ knotsBaromVisibWave heightAir tempDewpointWater temp
2014-Aug-22 07:09N 19°49' E 109°09'3 0.5
2014-Aug-22 01:26N 19°51' E 109°08'0 0.0
2014-Aug-21 22:28N 19°51' E 109°08'0 0.0
2014-Aug-21 21:25N 19°51' E 109°08'0 0.0
2014-Aug-21 20:28N 19°51' E 109°08'0 0.0
2014-Aug-21 19:31N 19°51' E 109°08'0 0.0
2014-Aug-21 18:16N 19°51' E 109°08'0 0.0
2014-Aug-21 17:28N 19°51' E 109°08'0 0.0
2014-Aug-21 16:16N 19°51' E 109°08'0 0.0
2014-Aug-21 15:16N 19°51' E 109°08'0 0.0
2014-Aug-21 14:28N 19°51' E 109°08'0 0.0
2014-Aug-21 13:25N 19°51' E 109°08'0 0.0
2014-Aug-21 02:19N 19°51' E 109°08'0 0.0
2014-Aug-21 00:10N 19°51' E 109°08'0 0.0
2014-Aug-20 23:31N 19°51' E 109°08'0 0.1
2014-Aug-20 22:31N 19°51' E 109°08'0 0.0
2014-Aug-20 21:04N 19°51' E 109°08'0 0.0
2014-Aug-20 20:22N 19°51' E 109°08'0 0.0
2014-Aug-20 19:22N 19°51' E 109°08'0 0.0
2014-Aug-20 18:28N 19°51' E 109°08'0 0.0
2014-Aug-20 17:31N 19°51' E 109°08'0 0.0
2014-Aug-20 15:13N 19°51' E 109°08'0 0.0
2014-Aug-20 14:19N 19°51' E 109°08'0 0.0
2014-Aug-20 13:10N 19°51' E 109°08'0 0.0
2014-Aug-20 11:22N 19°51' E 109°08'4 4.5
2014-Aug-20 10:33N 19°48' E 109°10'0 0.0
2014-Aug-19 09:32N 19°48' E 109°10'3 3.0
2014-Aug-19 08:33N 19°48' E 109°07'3 0.4
2014-Aug-19 00:13N 19°45' E 109°05'0 0.0
2014-Aug-18 23:16N 19°45' E 109°05'0 0.0
2014-Aug-18 22:31N 19°45' E 109°05'0 0.1
2014-Aug-18 21:13N 19°45' E 109°04'0 0.1
2014-Aug-18 20:25N 19°45' E 109°04'0 0.0
2014-Aug-18 19:22N 19°45' E 109°04'0 0.0
2014-Aug-18 18:16N 19°45' E 109°04'0 0.0
2014-Aug-18 17:13N 19°45' E 109°04'0 0.1
2014-Aug-18 16:31N 19°45' E 109°05'0 0.1
2014-Aug-18 15:04N 19°45' E 109°05'0 0.1
2014-Aug-18 14:28N 19°45' E 109°05'0 0.1
2014-Aug-18 13:25N 19°45' E 109°05'0 0.0
2014-Aug-18 11:28N 19°45' E 109°05'0 0.0
2014-Aug-18 10:31N 19°45' E 109°05'0 0.0
2014-Aug-18 09:13N 19°45' E 109°05'0 0.0
2014-Aug-18 08:31N 19°45' E 109°05'0 0.0
2014-Aug-18 07:07N 19°45' E 109°05'0 0.0
2014-Aug-18 06:31N 19°45' E 109°05'2 0.4
2014-Aug-18 01:18N 19°46' E 109°02'6 7.6
2014-Aug-18 00:28N 19°46' E 108°55'  
Track history (hours):
 
Tides and Currents Weather Stations Pressure Air Temp Water Temp Dewpoint Dewpoint Depression Visibility Wind Speed Wind Dir Waves Ship Positions

Ben

Last reported at 2014-Aug-22 07:09 UTC. Time now 2014-Aug-28 03:21 UTC.
Position N 19°49' E 109°09'.

Length 127 m; draft 7.1 m.

Type: Ship. MMSI: 565611000.

Date/timePositionNaut miles runAvg speedWind from/ knotsBaromVisibWave heightAir tempDewpointWater temp
2014-Aug-22 07:09N 19°49' E 109°09'3 0.5
2014-Aug-22 01:26N 19°51' E 109°08'0 0.0
2014-Aug-21 22:28N 19°51' E 109°08'0 0.0
2014-Aug-21 21:25N 19°51' E 109°08'0 0.0
2014-Aug-21 20:28N 19°51' E 109°08'0 0.0
2014-Aug-21 19:31N 19°51' E 109°08'0 0.0
2014-Aug-21 18:16N 19°51' E 109°08'0 0.0
2014-Aug-21 17:28N 19°51' E 109°08'0 0.0
2014-Aug-21 16:16N 19°51' E 109°08'0 0.0
2014-Aug-21 15:16N 19°51' E 109°08'0 0.0
2014-Aug-21 14:28N 19°51' E 109°08'0 0.0
2014-Aug-21 13:25N 19°51' E 109°08'0 0.0
2014-Aug-21 02:19N 19°51' E 109°08'0 0.0
2014-Aug-21 00:10N 19°51' E 109°08'0 0.0
2014-Aug-20 23:31N 19°51' E 109°08'0 0.1
2014-Aug-20 22:31N 19°51' E 109°08'0 0.0
2014-Aug-20 21:04N 19°51' E 109°08'0 0.0
2014-Aug-20 20:22N 19°51' E 109°08'0 0.0
2014-Aug-20 19:22N 19°51' E 109°08'0 0.0
2014-Aug-20 18:28N 19°51' E 109°08'0 0.0
2014-Aug-20 17:31N 19°51' E 109°08'0 0.0
2014-Aug-20 15:13N 19°51' E 109°08'0 0.0
2014-Aug-20 14:19N 19°51' E 109°08'0 0.0
2014-Aug-20 13:10N 19°51' E 109°08'0 0.0
2014-Aug-20 11:22N 19°51' E 109°08'4 4.5
2014-Aug-20 10:33N 19°48' E 109°10'0 0.0
2014-Aug-19 09:32N 19°48' E 109°10'3 3.0
2014-Aug-19 08:33N 19°48' E 109°07'3 0.4
2014-Aug-19 00:13N 19°45' E 109°05'0 0.0
2014-Aug-18 23:16N 19°45' E 109°05'0 0.0
2014-Aug-18 22:31N 19°45' E 109°05'0 0.1
2014-Aug-18 21:13N 19°45' E 109°04'0 0.1
2014-Aug-18 20:25N 19°45' E 109°04'0 0.0
2014-Aug-18 19:22N 19°45' E 109°04'0 0.0
2014-Aug-18 18:16N 19°45' E 109°04'0 0.0
2014-Aug-18 17:13N 19°45' E 109°04'0 0.1
2014-Aug-18 16:31N 19°45' E 109°05'0 0.1
2014-Aug-18 15:04N 19°45' E 109°05'0 0.1
2014-Aug-18 14:28N 19°45' E 109°05'0 0.1
2014-Aug-18 13:25N 19°45' E 109°05'0 0.0
2014-Aug-18 11:28N 19°45' E 109°05'0 0.0
2014-Aug-18 10:31N 19°45' E 109°05'0 0.0
2014-Aug-18 09:13N 19°45' E 109°05'0 0.0
2014-Aug-18 08:31N 19°45' E 109°05'0 0.0
2014-Aug-18 07:07N 19°45' E 109°05'0 0.0
2014-Aug-18 06:31N 19°45' E 109°05'2 0.4
2014-Aug-18 01:18N 19°46' E 109°02'6 7.6
2014-Aug-18 00:28N 19°46' E 108°55'  

Dump ship's entire track history